Time;durP1;ratioP1;P1;durP2;ratioP2;P2;SDS_P1;SDS_P2;PMS_P1;PMS_P2;Temp;Humidity;BMP_temperature;BMP_pressure;BME280_temperature;BME280_humidity;BME280_pressure;Samples;Min_cycle;Max_cycle;Signal;HPM_P1;HPM_P2
2023/03/29 00:02:28;;;;;;;4.68;2.00;;;;;;;2.98;55.98;100360.00;5006038;28;20042;-26
2023/03/29 00:04:55;;;;;;;2.22;1.20;;;;;;;3.00;55.99;100365.94;5006457;28;20119;-26
2023/03/29 00:07:22;;;;;;;1.30;0.90;;;;;;;2.78;55.94;100354.22;5000178;28;20037;-27
2023/03/29 00:09:48;;;;;;;2.20;1.30;;;;;;;2.70;56.09;100359.47;5007093;28;20105;-28
2023/03/29 00:12:14;;;;;;;2.58;1.23;;;;;;;2.72;56.27;100366.22;4987993;28;20192;-29
2023/03/29 00:14:39;;;;;;;4.55;1.42;;;;;;;2.73;56.55;100370.47;4996298;28;20034;-27
2023/03/29 00:17:05;;;;;;;5.20;1.55;;;;;;;2.80;56.22;100379.41;4986524;28;20026;-27
2023/03/29 00:19:34;;;;;;;2.85;1.48;;;;;;;2.81;55.61;100362.59;4988026;28;20040;-27
2023/03/29 00:22:01;;;;;;;2.63;1.15;;;;;;;2.79;55.50;100376.91;4995992;28;20034;-27
2023/03/29 00:24:26;;;;;;;2.85;1.30;;;;;;;2.76;55.68;100369.34;4990304;28;20030;-26
2023/03/29 00:26:51;;;;;;;4.22;1.40;;;;;;;2.74;56.18;100372.16;4998019;28;20076;-27
2023/03/29 00:29:17;;;;;;;2.78;1.40;;;;;;;2.79;55.94;100375.09;4986173;28;20018;-28
2023/03/29 00:31:52;;;;;;;2.22;1.25;;;;;;;2.77;55.82;100379.72;5001648;28;20030;-27
2023/03/29 00:34:18;;;;;;;2.22;1.45;;;;;;;2.71;56.19;100375.06;5006606;28;20518;-26
2023/03/29 00:36:44;;;;;;;3.08;1.77;;;;;;;2.67;56.02;100371.13;5001838;28;20030;-26
2023/03/29 00:39:09;;;;;;;3.58;1.63;;;;;;;2.69;56.51;100376.22;4991796;28;20105;-27
2023/03/29 00:41:35;;;;;;;2.88;1.63;;;;;;;2.61;56.51;100371.75;4992577;28;20462;-27
2023/03/29 00:44:03;;;;;;;3.83;1.35;;;;;;;2.66;55.64;100366.84;4989597;28;20030;-27
2023/03/29 00:46:29;;;;;;;2.50;1.45;;;;;;;2.59;56.28;100371.91;4993547;28;20434;-27
2023/03/29 00:49:06;;;;;;;1.38;1.17;;;;;;;2.38;56.33;100340.75;4988736;28;20089;-26
2023/03/29 00:51:35;;;;;;;1.67;1.13;;;;;;;2.51;56.69;100358.72;4998121;28;20029;-27
2023/03/29 00:54:04;;;;;;;3.88;1.70;;;;;;;2.59;56.24;100369.28;5006008;28;20041;-27
2023/03/29 00:56:42;;;;;;;2.90;1.33;;;;;;;2.64;55.48;100368.81;5005525;28;20152;-26
2023/03/29 00:59:12;;;;;;;3.03;1.50;;;;;;;2.58;56.30;100366.81;5006113;28;20069;-27
2023/03/29 01:01:44;;;;;;;2.60;1.67;;;;;;;2.54;56.61;100371.56;5006123;28;20038;-27
2023/03/29 01:04:17;;;;;;;3.67;1.67;;;;;;;2.50;56.92;100369.44;5006378;28;20571;-27
2023/03/29 01:06:47;;;;;;;3.10;1.63;;;;;;;2.38;56.19;100346.00;5006973;28;20022;-27
2023/03/29 01:09:13;;;;;;;3.10;1.80;;;;;;;2.51;56.92;100379.78;5009960;28;20076;-27
2023/03/29 01:11:44;;;;;;;3.90;2.00;;;;;;;2.49;56.11;100373.03;5009813;28;20034;-26
2023/03/29 01:14:25;;;;;;;3.47;2.13;;;;;;;2.37;56.50;100352.28;5010074;28;20056;-27
2023/03/29 01:16:52;;;;;;;3.60;1.95;;;;;;;2.54;56.88;100370.75;5010084;28;20498;-27
2023/03/29 01:19:22;;;;;;;3.13;2.10;;;;;;;2.42;57.10;100378.09;5009431;28;20041;-26
2023/03/29 01:21:53;;;;;;;3.15;1.92;;;;;;;2.41;56.99;100382.56;5009862;28;20443;-27
2023/03/29 01:24:19;;;;;;;3.40;1.77;;;;;;;2.39;57.24;100379.25;5009860;28;20026;-27
2023/03/29 01:27:01;;;;;;;2.75;1.73;;;;;;;2.36;57.38;100389.28;5001626;28;20038;-27
2023/03/29 01:29:38;;;;;;;4.45;2.03;;;;;;;2.35;57.83;100377.94;4989629;28;20018;-27
2023/03/29 01:32:10;;;;;;;3.40;1.83;;;;;;;2.31;57.00;100381.00;4989402;28;20056;-27
2023/03/29 01:34:57;;;;;;;4.07;1.90;;;;;;;2.32;57.63;100394.00;4989417;28;20780;-27
2023/03/29 01:37:37;;;;;;;6.75;2.08;;;;;;;2.29;57.46;100372.44;4989315;28;20034;-27
2023/03/29 01:40:05;;;;;;;3.03;2.10;;;;;;;2.22;57.75;100390.66;4989364;28;20035;-27
2023/03/29 01:42:51;;;;;;;3.42;2.10;;;;;;;2.29;57.00;100389.06;4989605;28;20041;-27
2023/03/29 01:45:40;;;;;;;3.92;2.03;;;;;;;2.32;57.05;100399.28;4988883;28;20030;-27
2023/03/29 01:48:27;;;;;;;3.42;1.70;;;;;;;2.36;56.91;100411.13;4989235;28;20054;-27
2023/03/29 01:51:03;;;;;;;3.67;2.30;;;;;;;2.31;57.26;100400.28;4989644;28;20080;-26
2023/03/29 01:54:13;;;;;;;2.58;1.70;;;;;;;2.18;57.41;100381.44;4989153;28;20042;-27
2023/03/29 01:56:42;;;;;;;3.97;2.42;;;;;;;2.17;56.97;100377.19;4988172;28;20080;-26
2023/03/29 01:59:16;;;;;;;4.78;2.80;;;;;;;2.23;57.57;100405.50;4988950;28;20039;-26
2023/03/29 02:01:48;;;;;;;5.13;2.47;;;;;;;2.24;57.03;100408.94;4988950;28;20060;-27
2023/03/29 02:04:19;;;;;;;3.83;2.53;;;;;;;2.10;57.65;100402.44;4988676;28;20505;-27
2023/03/29 02:06:45;;;;;;;5.50;2.60;;;;;;;2.17;56.92;100403.50;4988936;28;20847;-27
2023/03/29 02:09:11;;;;;;;3.83;2.17;;;;;;;2.15;56.59;100402.81;4988639;28;20034;-28
2023/03/29 02:11:40;;;;;;;3.80;2.08;;;;;;;2.08;56.49;100404.41;4988841;28;20075;-26
2023/03/29 02:14:06;;;;;;;3.83;2.58;;;;;;;2.00;56.96;100405.16;4988777;28;20034;-26
2023/03/29 02:16:36;;;;;;;4.25;2.67;;;;;;;2.07;56.82;100421.19;4988864;28;20422;-28
2023/03/29 02:19:02;;;;;;;5.45;2.42;;;;;;;2.14;56.80;100414.31;4987264;28;20034;-27
2023/03/29 02:21:55;;;;;;;5.28;2.60;;;;;;;1.72;56.96;100378.22;4988686;28;20037;-27
2023/03/29 02:24:23;;;;;;;4.53;2.42;;;;;;;1.97;57.17;100416.03;4988768;28;20029;-27
2023/03/29 02:26:49;;;;;;;4.85;2.45;;;;;;;1.97;57.43;100427.34;4988522;28;20030;-27
2023/03/29 02:29:15;;;;;;;4.93;2.95;;;;;;;1.90;58.23;100428.13;4988077;28;20061;-27
2023/03/29 02:31:48;;;;;;;4.50;2.55;;;;;;;1.77;58.98;100410.13;4988334;28;20087;-27
2023/03/29 02:34:25;;;;;;;6.07;2.63;;;;;;;1.88;58.02;100449.34;4988201;28;20498;-28
2023/03/29 02:37:05;;;;;;;5.70;3.15;;;;;;;1.93;57.71;100407.59;4988433;28;20554;-27
2023/03/29 02:39:33;;;;;;;5.13;2.78;;;;;;;2.05;56.98;100418.69;4988511;28;20026;-27
2023/03/29 02:42:00;;;;;;;5.68;3.08;;;;;;;1.90;57.90;100421.06;4989040;28;20569;-27
2023/03/29 02:44:28;;;;;;;3.47;2.08;;;;;;;1.59;59.31;100413.63;4988099;28;20037;-26
2023/03/29 02:47:23;;;;;;;4.75;2.45;;;;;;;1.60;59.00;100441.53;4988141;28;20054;-26
2023/03/29 02:49:48;;;;;;;4.85;2.78;;;;;;;1.59;59.63;100445.16;4980829;28;20054;-27
2023/03/29 02:52:21;;;;;;;6.97;3.20;;;;;;;1.48;58.87;100415.66;4987694;28;20117;-27
2023/03/29 02:54:50;;;;;;;3.70;2.13;;;;;;;1.63;57.83;100447.47;4987671;28;20042;-26
2023/03/29 02:57:15;;;;;;;3.08;2.25;;;;;;;1.74;56.84;100452.50;4987694;28;20037;-27
2023/03/29 02:59:42;;;;;;;4.35;2.85;;;;;;;1.83;56.03;100454.22;4988019;28;20034;-26
2023/03/29 03:02:08;;;;;;;5.00;2.70;;;;;;;1.87;57.26;100449.47;4987986;28;20413;-27
2023/03/29 03:04:34;;;;;;;4.35;2.50;;;;;;;1.90;56.61;100457.03;4988108;28;20041;-27
2023/03/29 03:07:00;;;;;;;7.43;3.83;;;;;;;1.86;56.96;100453.06;4988290;28;20041;-27
2023/03/29 03:09:26;;;;;;;4.63;2.30;;;;;;;1.83;57.65;100461.28;4988042;28;20018;-27
2023/03/29 03:11:51;;;;;;;3.95;2.63;;;;;;;1.72;57.55;100464.97;4988118;28;20076;-27
2023/03/29 03:14:17;;;;;;;4.65;3.30;;;;;;;1.72;58.25;100486.03;4987669;28;20040;-27
2023/03/29 03:16:43;;;;;;;5.32;3.15;;;;;;;1.83;57.95;100492.84;4987832;28;20018;-27
2023/03/29 03:19:09;;;;;;;7.20;2.97;;;;;;;1.79;58.16;100482.59;4987144;28;20417;-27
2023/03/29 03:21:36;;;;;;;5.85;3.25;;;;;;;1.71;58.34;100492.25;4987417;28;20037;-27
2023/03/29 03:24:04;;;;;;;5.00;2.92;;;;;;;1.64;58.22;100499.09;4987240;28;20121;-27
2023/03/29 03:26:29;;;;;;;6.38;3.50;;;;;;;1.72;58.17;100483.38;4987083;28;20026;-27
2023/03/29 03:28:55;;;;;;;4.00;2.53;;;;;;;1.68;58.11;100495.19;4987300;28;20030;-27
2023/03/29 03:31:21;;;;;;;5.47;2.70;;;;;;;1.63;58.30;100494.78;4986477;28;20038;-27
2023/03/29 03:33:47;;;;;;;5.50;3.10;;;;;;;1.62;57.78;100488.72;4987530;28;20418;-27
2023/03/29 03:36:12;;;;;;;5.45;2.80;;;;;;;1.66;57.86;100502.41;4987256;28;20045;-27
2023/03/29 03:38:38;;;;;;;5.03;3.10;;;;;;;1.69;57.97;100500.25;4987070;28;20061;-27
2023/03/29 03:41:06;;;;;;;5.55;3.00;;;;;;;1.72;57.30;100512.31;4987144;28;20038;-27
2023/03/29 03:43:31;;;;;;;5.50;3.47;;;;;;;1.76;57.20;100513.66;4987050;28;20573;-27
2023/03/29 03:45:57;;;;;;;5.38;2.90;;;;;;;1.84;56.77;100521.63;4986805;28;20113;-27
2023/03/29 03:48:23;;;;;;;5.03;2.90;;;;;;;1.58;57.39;100522.34;4986918;28;20117;-27
2023/03/29 03:50:51;;;;;;;5.70;3.08;;;;;;;1.46;57.39;100512.22;4986882;28;20034;-27
2023/03/29 03:53:17;;;;;;;5.70;2.85;;;;;;;1.52;57.06;100522.94;4986943;28;20041;-27
2023/03/29 03:55:55;;;;;;;5.60;3.20;;;;;;;1.59;56.84;100534.53;4987134;28;20034;-27
2023/03/29 03:58:21;;;;;;;4.43;2.70;;;;;;;1.67;56.82;100549.53;4986683;28;20061;-27
2023/03/29 04:00:48;;;;;;;11.85;5.70;;;;;;;1.67;56.72;100546.91;4986637;28;20066;-27
2023/03/29 04:03:15;;;;;;;7.00;3.97;;;;;;;1.66;56.20;100541.84;4986980;28;20497;-27
2023/03/29 04:05:43;;;;;;;10.35;4.47;;;;;;;1.70;56.08;100545.81;4986791;28;20501;-27
2023/03/29 04:08:10;;;;;;;5.70;3.40;;;;;;;1.77;56.22;100557.38;4986677;28;20034;-27
2023/03/29 04:10:35;;;;;;;6.80;3.97;;;;;;;1.80;56.57;100552.66;4986491;28;20544;-27
2023/03/29 04:13:03;;;;;;;4.13;3.00;;;;;;;1.78;55.89;100557.22;4986330;28;20030;-27
2023/03/29 04:15:30;;;;;;;6.90;3.08;;;;;;;1.72;56.52;100549.94;4986991;28;20097;-27
2023/03/29 04:17:56;;;;;;;5.10;3.03;;;;;;;1.83;55.95;100566.47;4986594;28;20031;-27
2023/03/29 04:20:23;;;;;;;6.53;3.67;;;;;;;1.84;55.42;100574.22;4987172;28;20037;-27
2023/03/29 04:22:48;;;;;;;7.50;3.85;;;;;;;1.81;56.55;100559.53;4987240;28;20137;-27
2023/03/29 04:25:14;;;;;;;10.02;4.63;;;;;;;1.80;55.83;100589.47;4987165;28;20022;-25
2023/03/29 04:27:39;;;;;;;6.25;4.28;;;;;;;1.72;56.58;100580.69;4986959;28;20133;-27
2023/03/29 04:30:06;;;;;;;5.53;3.80;;;;;;;1.78;56.55;100594.03;4986716;28;20031;-27
2023/03/29 04:32:32;;;;;;;6.13;4.03;;;;;;;1.82;56.23;100578.81;4986817;28;20532;-27
2023/03/29 04:34:57;;;;;;;7.60;4.05;;;;;;;1.77;57.27;100589.75;4985947;28;20030;-27
2023/03/29 04:37:23;;;;;;;8.52;3.92;;;;;;;1.81;56.49;100596.38;4986412;28;20030;-27
2023/03/29 04:39:49;;;;;;;8.98;4.38;;;;;;;1.98;56.15;100599.16;4986247;28;20042;-27
2023/03/29 04:42:15;;;;;;;6.90;3.88;;;;;;;1.80;56.39;100604.44;4987311;28;20030;-27
2023/03/29 04:44:42;;;;;;;6.03;3.92;;;;;;;1.81;56.13;100613.94;4990274;28;20024;-27
2023/03/29 04:47:09;;;;;;;6.13;3.67;;;;;;;1.78;56.64;100606.38;4990597;28;20084;-27
2023/03/29 04:49:35;;;;;;;6.38;3.88;;;;;;;1.95;56.41;100607.38;4990660;28;20036;-27
2023/03/29 04:52:00;;;;;;;5.60;3.80;;;;;;;1.89;55.64;100616.66;4990183;28;20030;-27
2023/03/29 04:54:26;;;;;;;8.75;4.47;;;;;;;2.08;55.92;100613.06;4990167;28;20023;-27
2023/03/29 04:56:51;;;;;;;5.18;3.53;;;;;;;1.95;55.14;100600.28;4989990;28;20085;-27
2023/03/29 04:59:17;;;;;;;6.05;3.13;;;;;;;2.22;55.04;100630.13;4989977;28;20564;-27
2023/03/29 05:01:42;;;;;;;6.75;4.78;;;;;;;2.37;54.82;100628.63;4990022;28;20434;-27
2023/03/29 05:04:08;;;;;;;6.68;4.15;;;;;;;2.38;54.49;100622.38;4989631;28;20428;-27
2023/03/29 05:06:35;;;;;;;7.50;4.60;;;;;;;2.53;54.39;100603.41;4990182;28;20031;-27
2023/03/29 05:09:01;;;;;;;6.93;3.75;;;;;;;2.43;54.12;100616.66;4989727;28;20038;-27
2023/03/29 05:11:26;;;;;;;6.35;4.30;;;;;;;2.55;54.34;100612.81;4990282;28;20425;-27
2023/03/29 05:13:54;;;;;;;8.38;4.78;;;;;;;2.69;53.46;100610.59;4990042;28;20126;-26
2023/03/29 05:16:19;;;;;;;5.17;2.93;;;;;;;2.72;54.38;100619.03;4990739;28;20060;-27
2023/03/29 05:18:45;;;;;;;7.45;3.80;;;;;;;2.90;53.44;100618.16;4990404;28;21029;-27
2023/03/29 05:21:10;;;;;;;6.85;3.85;;;;;;;2.88;53.57;100614.84;4990411;28;20034;-27
2023/03/29 05:23:36;;;;;;;7.13;4.03;;;;;;;2.84;54.31;100618.75;4990326;28;20096;-27
2023/03/29 05:26:02;;;;;;;5.97;3.80;;;;;;;2.83;53.29;100614.50;4990123;28;20029;-27
2023/03/29 05:28:28;;;;;;;8.65;3.78;;;;;;;2.88;53.96;100589.34;4990420;28;20501;-27
2023/03/29 05:31:04;;;;;;;5.28;3.20;;;;;;;3.09;53.29;100607.41;4989967;28;20091;-27
2023/03/29 05:33:30;;;;;;;6.20;3.92;;;;;;;3.21;53.33;100627.22;4990042;28;20042;-27
2023/03/29 05:36:06;;;;;;;4.90;3.42;;;;;;;3.13;52.26;100629.81;4989758;28;20422;-27
2023/03/29 05:38:33;;;;;;;6.10;3.05;;;;;;;3.14;52.19;100635.91;4990229;28;20022;-27
2023/03/29 05:40:59;;;;;;;7.90;3.33;;;;;;;3.22;52.44;100634.13;4989906;28;20026;-27
2023/03/29 05:43:25;;;;;;;6.85;2.97;;;;;;;3.47;51.54;100647.44;4990127;28;20425;-27
2023/03/29 05:45:54;;;;;;;5.78;3.63;;;;;;;3.66;51.74;100661.38;4989670;28;20030;-27
2023/03/29 05:48:21;;;;;;;5.97;3.92;;;;;;;3.49;51.63;100597.19;4990040;28;20067;-27
2023/03/29 05:50:48;;;;;;;6.68;4.03;;;;;;;4.26;50.98;100663.84;4989737;28;20080;-27
2023/03/29 05:53:15;;;;;;;6.13;3.55;;;;;;;4.27;50.11;100670.78;4989772;28;20072;-27
2023/03/29 05:55:41;;;;;;;7.18;4.05;;;;;;;4.32;50.02;100651.81;4989696;28;20045;-27
2023/03/29 05:58:07;;;;;;;4.35;2.45;;;;;;;4.08;49.37;100663.97;4989726;28;20066;-27
2023/03/29 06:00:35;;;;;;;8.15;2.90;;;;;;;4.05;49.04;100666.94;4989425;28;20561;-27
2023/03/29 06:03:01;;;;;;;7.55;4.30;;;;;;;4.50;49.43;100665.69;4989521;28;20481;-27
2023/03/29 06:05:27;;;;;;;4.28;3.25;;;;;;;4.32;49.06;100667.66;4989718;28;20030;-27
2023/03/29 06:07:53;;;;;;;6.22;3.78;;;;;;;4.48;49.83;100666.84;4989214;28;20034;-27
2023/03/29 06:10:19;;;;;;;7.40;3.60;;;;;;;4.48;49.41;100666.84;4989646;28;20026;-27
2023/03/29 06:12:45;;;;;;;4.72;3.33;;;;;;;4.36;48.77;100669.78;4989330;28;20085;-28
2023/03/29 06:15:12;;;;;;;4.82;3.10;;;;;;;4.23;49.14;100658.91;4989506;28;20037;-27
2023/03/29 06:17:38;;;;;;;5.80;4.00;;;;;;;4.51;49.29;100672.59;4989050;28;20033;-27
2023/03/29 06:20:09;;;;;;;6.85;3.40;;;;;;;4.68;48.65;100678.75;4989673;28;20018;-27
2023/03/29 06:22:39;;;;;;;6.63;3.78;;;;;;;4.70;48.06;100670.63;4988962;28;20080;-27
2023/03/29 06:25:06;;;;;;;9.57;4.18;;;;;;;4.81;48.90;100678.25;4989279;28;20582;-27
2023/03/29 06:27:32;;;;;;;5.40;2.72;;;;;;;4.63;47.79;100667.84;4988874;28;20041;-27
2023/03/29 06:29:58;;;;;;;6.03;3.95;;;;;;;4.96;48.04;100665.97;4988998;28;20030;-27
2023/03/29 06:32:24;;;;;;;7.57;3.15;;;;;;;4.79;47.04;100678.41;4988912;28;20121;-27
2023/03/29 06:34:50;;;;;;;5.85;3.45;;;;;;;5.08;46.05;100681.50;4971327;28;20494;-27
2023/03/29 06:37:16;;;;;;;5.43;2.95;;;;;;;5.05;46.57;100680.03;4988763;28;20037;-27
2023/03/29 06:39:42;;;;;;;6.43;3.45;;;;;;;5.19;46.69;100681.16;4988684;28;20027;-27
2023/03/29 06:42:08;;;;;;;5.32;3.28;;;;;;;5.45;46.19;100688.84;4988432;28;20114;-27
2023/03/29 06:44:34;;;;;;;4.68;2.45;;;;;;;5.32;45.08;100685.94;4988698;28;20134;-27
2023/03/29 06:47:00;;;;;;;3.30;2.28;;;;;;;5.44;43.99;100697.81;4988672;28;20049;-27
2023/03/29 06:49:26;;;;;;;5.50;2.70;;;;;;;5.27;43.84;100704.13;4988593;28;20057;-27
2023/03/29 06:51:51;;;;;;;6.97;3.72;;;;;;;5.19;44.34;100713.72;4987966;28;20112;-27
2023/03/29 06:54:18;;;;;;;4.25;2.47;;;;;;;5.32;43.80;100704.44;4986721;28;20334;-27
2023/03/29 06:56:44;;;;;;;8.80;2.95;;;;;;;5.30;43.93;100693.22;4986819;28;20045;-27
2023/03/29 06:59:10;;;;;;;7.13;3.35;;;;;;;5.41;43.13;100682.25;4986860;28;20046;-27
2023/03/29 07:01:36;;;;;;;5.97;3.10;;;;;;;5.43;43.03;100693.50;4986717;28;20034;-27
2023/03/29 07:04:06;;;;;;;4.25;2.40;;;;;;;5.46;43.17;100695.00;4986885;28;20123;-27
2023/03/29 07:06:32;;;;;;;16.80;5.55;;;;;;;5.57;42.59;100694.63;4969053;28;20030;-27
2023/03/29 07:09:00;;;;;;;6.38;2.90;;;;;;;5.69;43.25;100693.25;4987219;28;20034;-27
2023/03/29 07:11:25;;;;;;;19.02;6.30;;;;;;;5.47;42.54;100692.16;4986606;28;20450;-27
2023/03/29 07:13:51;;;;;;;21.38;6.22;;;;;;;5.31;39.68;100718.66;4987276;28;20027;-27
2023/03/29 07:16:18;;;;;;;14.57;3.90;;;;;;;5.20;39.31;100706.63;4986950;28;20390;-27
2023/03/29 07:18:44;;;;;;;15.52;4.68;;;;;;;5.42;40.82;100702.44;4986707;28;20026;-27
2023/03/29 07:21:11;;;;;;;15.68;4.85;;;;;;;5.80;41.24;100695.53;4987033;28;20038;-27
2023/03/29 07:23:38;;;;;;;15.82;5.60;;;;;;;5.87;38.63;100690.38;4988445;28;20034;-27
2023/03/29 07:26:06;;;;;;;6.18;2.40;;;;;;;6.19;39.70;100699.16;4988105;28;20026;-27
2023/03/29 07:28:32;;;;;;;17.55;4.53;;;;;;;6.65;36.93;100707.13;4987800;28;20026;-27
2023/03/29 07:31:16;;;;;;;4.10;2.10;;;;;;;7.03;37.00;100715.13;4987953;28;20084;-27
2023/03/29 07:33:43;;;;;;;17.63;4.45;;;;;;;6.95;36.31;100712.53;4987929;28;20030;-27
2023/03/29 07:36:09;;;;;;;16.08;4.85;;;;;;;6.61;35.50;100704.00;4987869;28;20023;-28
2023/03/29 07:38:36;;;;;;;3.22;1.60;;;;;;;6.29;34.93;100722.78;4986687;28;20026;-27
2023/03/29 07:41:04;;;;;;;22.20;7.20;;;;;;;6.36;36.50;100713.97;4987618;28;20494;-27
2023/03/29 07:43:29;;;;;;;13.07;5.50;;;;;;;6.66;35.87;100722.06;4987666;28;20030;-27
2023/03/29 07:45:57;;;;;;;3.80;2.08;;;;;;;6.84;35.99;100711.13;4987639;28;20030;-27
2023/03/29 07:48:23;;;;;;;4.78;2.00;;;;;;;7.20;34.80;100707.81;4987568;28;20023;-27
2023/03/29 07:50:48;;;;;;;2.55;1.70;;;;;;;7.32;34.62;100729.44;4987293;28;20034;-26
2023/03/29 07:53:14;;;;;;;3.30;1.63;;;;;;;7.07;34.70;100708.47;4987672;28;20088;-27
2023/03/29 07:55:45;;;;;;;3.25;1.70;;;;;;;7.40;35.69;100714.25;4987451;28;20415;-26
2023/03/29 07:58:12;;;;;;;3.15;1.63;;;;;;;7.72;34.62;100716.72;4987432;28;20041;-26
2023/03/29 08:00:38;;;;;;;5.03;2.30;;;;;;;7.58;34.53;100715.72;4986754;28;20517;-26
2023/03/29 08:03:03;;;;;;;7.07;4.18;;;;;;;7.97;34.68;100710.09;4987292;28;20085;-27
2023/03/29 08:05:29;;;;;;;6.35;3.03;;;;;;;8.12;34.26;100709.25;4987287;28;20061;-27
2023/03/29 08:07:54;;;;;;;4.22;2.30;;;;;;;8.02;33.89;100714.84;4987374;28;20088;-26
2023/03/29 08:10:20;;;;;;;7.47;3.15;;;;;;;8.37;34.19;100707.88;4987192;28;20033;-27
2023/03/29 08:12:48;;;;;;;3.53;2.20;;;;;;;8.18;34.10;100721.78;4987394;28;20042;-27
2023/03/29 08:15:14;;;;;;;5.72;2.30;;;;;;;8.63;32.66;100709.22;4987110;28;20144;-27
2023/03/29 08:17:40;;;;;;;5.45;2.30;;;;;;;8.34;32.30;100715.44;4987372;28;20030;-27
2023/03/29 08:20:09;;;;;;;10.98;3.45;;;;;;;8.62;32.92;100704.88;4987128;28;20037;-27
2023/03/29 08:22:35;;;;;;;8.20;3.10;;;;;;;8.94;32.30;100716.03;4986921;28;20056;-27
2023/03/29 08:25:01;;;;;;;8.15;3.28;;;;;;;8.94;33.20;100706.19;4987298;28;20440;-25
2023/03/29 08:27:27;;;;;;;6.55;2.78;;;;;;;9.22;31.99;100692.91;4987053;28;20076;-27
2023/03/29 08:29:53;;;;;;;4.60;2.05;;;;;;;9.51;32.33;100712.34;4987203;28;20030;-27
2023/03/29 08:32:18;;;;;;;10.50;3.75;;;;;;;8.71;32.01;100703.75;4986691;28;20038;-26
2023/03/29 08:34:44;;;;;;;7.00;3.28;;;;;;;8.57;30.77;100710.78;4986976;28;20030;-27
2023/03/29 08:37:09;;;;;;;9.18;3.65;;;;;;;8.16;30.86;100695.41;4987043;28;20042;-27
2023/03/29 08:39:35;;;;;;;8.60;3.08;;;;;;;8.78;33.59;100709.13;4986833;28;20022;-27
2023/03/29 08:42:25;;;;;;;24.25;10.05;;;;;;;9.03;31.94;100693.56;4986944;28;20060;-27
2023/03/29 08:45:04;;;;;;;13.15;4.03;;;;;;;8.90;30.26;100696.97;4986928;28;20085;-27
2023/03/29 08:47:58;;;;;;;;;;;;;;;9.35;30.09;100683.38;4987456;28;20041;-27
2023/03/29 08:50:34;;;;;;;8.68;2.75;;;;;;;9.57;30.68;100686.78;4973329;28;19914;-27
2023/03/29 08:53:05;;;;;;;10.20;3.60;;;;;;;9.49;29.52;100693.06;4986795;28;20058;-27
2023/03/29 08:55:39;;;;;;;4.45;2.45;;;;;;;9.58;29.07;100697.22;4986654;28;20104;-27
2023/03/29 08:58:11;;;;;;;10.27;3.75;;;;;;;9.75;29.57;100681.75;4986137;28;20026;-27
2023/03/29 09:00:48;;;;;;;8.52;2.88;;;;;;;9.63;29.73;100691.31;4986807;28;20607;-27
2023/03/29 09:03:20;;;;;;;9.38;3.28;;;;;;;9.61;29.91;100670.19;4987042;28;20041;-27
2023/03/29 09:05:51;;;;;;;10.68;3.67;;;;;;;9.57;29.65;100679.59;4987067;28;20112;-27
2023/03/29 09:08:18;;;;;;;4.88;2.00;;;;;;;8.95;30.12;100659.13;4987115;28;20030;-27
2023/03/29 09:11:05;;;;;;;4.78;2.00;;;;;;;9.05;30.67;100675.56;4987047;28;20054;-27
2023/03/29 09:13:48;;;;;;;5.28;1.90;;;;;;;9.59;30.82;100672.22;4986806;28;20053;-27
2023/03/29 09:16:16;;;;;;;6.18;2.08;;;;;;;9.70;31.03;100680.69;4986522;28;20041;-27
2023/03/29 09:19:02;;;;;;;5.22;2.20;;;;;;;9.95;29.80;100679.16;4986752;28;20035;-30
2023/03/29 09:21:45;;;;;;;4.13;1.75;;;;;;;9.32;29.67;100670.47;4986818;28;20069;-27
2023/03/29 09:24:25;;;;;;;3.00;1.55;;;;;;;9.62;28.11;100681.66;4986988;28;20516;-27
2023/03/29 09:26:59;;;;;;;3.50;1.55;;;;;;;9.88;29.13;100672.16;4986549;28;20441;-27
2023/03/29 09:29:49;;;;;;;7.30;2.90;;;;;;;9.50;28.82;100694.72;4989453;28;20042;-27
2023/03/29 09:33:01;;;;;;;2.40;1.45;;;;;;;8.84;29.93;100679.91;4990295;28;20080;-27
2023/03/29 09:35:48;;;;;;;6.35;2.70;;;;;;;9.15;29.79;100681.38;4989774;28;20061;-27
2023/03/29 09:38:16;;;;;;;2.35;1.30;;;;;;;8.19;30.23;100649.03;4990064;28;20065;-27
2023/03/29 09:40:49;;;;;;;2.60;1.58;;;;;;;8.41;30.40;100650.72;4990346;28;20526;-27
2023/03/29 09:43:22;;;;;;;2.80;1.20;;;;;;;8.75;30.47;100651.84;4990147;28;20516;-27
2023/03/29 09:45:55;;;;;;;1.65;1.00;;;;;;;8.27;28.25;100656.88;4989274;28;20534;-27
2023/03/29 09:48:21;;;;;;;2.75;1.23;;;;;;;8.33;28.38;100674.72;4989229;28;20137;-27
2023/03/29 09:50:50;;;;;;;2.63;1.20;;;;;;;8.85;29.26;100670.13;4989255;28;20035;-27
2023/03/29 09:53:17;;;;;;;3.63;1.40;;;;;;;8.37;28.55;100668.03;4989452;28;20030;-27
2023/03/29 09:55:45;;;;;;;2.70;1.40;;;;;;;8.07;28.84;100653.19;4989474;28;20030;-27
2023/03/29 09:58:16;;;;;;;6.00;1.50;;;;;;;8.41;29.03;100664.00;4989362;28;20033;-27
2023/03/29 10:00:43;;;;;;;2.75;1.38;;;;;;;8.67;29.54;100665.28;4988912;28;20469;-27
2023/03/29 10:03:27;;;;;;;1.75;1.10;;;;;;;9.04;28.36;100674.75;4989133;28;20036;-27
2023/03/29 10:05:55;;;;;;;2.35;1.50;;;;;;;9.28;29.26;100667.34;4972141;28;20022;-27
2023/03/29 10:08:37;;;;;;;2.80;1.50;;;;;;;8.69;29.19;100676.53;4989575;28;20030;-27
2023/03/29 10:11:08;;;;;;;2.95;1.60;;;;;;;8.48;29.40;100657.94;4989260;28;20034;-27
2023/03/29 10:13:42;;;;;;;4.03;1.60;;;;;;;9.22;29.70;100654.84;4989387;28;20022;-27
2023/03/29 10:16:18;;;;;;;3.45;1.50;;;;;;;9.54;29.01;100642.72;4989894;28;20109;-29
2023/03/29 10:18:43;;;;;;;1.73;1.10;;;;;;;10.28;27.95;100662.44;4989205;28;20057;-27
2023/03/29 10:21:17;;;;;;;1.90;1.20;;;;;;;9.82;29.20;100649.78;4989531;28;20038;-27
2023/03/29 10:23:43;;;;;;;2.95;1.38;;;;;;;9.67;29.03;100647.28;4989305;28;20030;-27
2023/03/29 10:26:30;;;;;;;3.95;1.63;;;;;;;9.50;27.93;100673.44;4989397;28;20038;-27
2023/03/29 10:28:59;;;;;;;4.43;1.42;;;;;;;9.46;27.68;100674.84;4989384;28;20099;-27
2023/03/29 10:31:28;;;;;;;1.50;1.10;;;;;;;9.74;28.92;100649.97;4989121;28;20430;-27
2023/03/29 10:33:56;;;;;;;3.72;1.52;;;;;;;9.41;27.02;100663.94;4988984;28;20506;-27
2023/03/29 10:36:25;;;;;;;3.72;1.80;;;;;;;9.89;27.34;100660.47;4989100;28;20039;-27
2023/03/29 10:38:53;;;;;;;2.72;1.48;;;;;;;10.32;27.79;100660.19;4988695;28;20042;-27
2023/03/29 10:41:21;;;;;;;2.50;1.42;;;;;;;10.95;26.34;100650.00;4988391;28;20122;-27
2023/03/29 10:43:49;;;;;;;4.13;2.03;;;;;;;10.88;26.40;100665.16;4988928;28;20399;-27
2023/03/29 10:46:24;;;;;;;3.85;1.73;;;;;;;10.90;26.38;100664.97;4989022;28;20022;-27
2023/03/29 10:49:08;;;;;;;3.70;1.60;;;;;;;11.88;28.44;100638.19;4988650;28;20053;-27
2023/03/29 10:51:34;;;;;;;4.32;2.15;;;;;;;12.47;25.30;100644.25;4988838;28;20034;-27
2023/03/29 10:54:02;;;;;;;3.45;1.75;;;;;;;12.63;26.97;100645.56;4988439;28;20107;-27
2023/03/29 10:56:41;;;;;;;2.72;1.40;;;;;;;12.67;26.68;100646.78;4988675;28;20034;-27
2023/03/29 10:59:26;;;;;;;2.13;1.40;;;;;;;12.62;25.12;100644.72;4988426;28;20093;-27
2023/03/29 11:02:13;;;;;;;3.42;1.40;;;;;;;12.73;25.59;100640.56;4988698;28;20113;-27
2023/03/29 11:04:55;;;;;;;3.05;1.30;;;;;;;12.69;24.88;100633.16;4988269;28;20057;-27
2023/03/29 11:07:31;;;;;;;4.53;1.60;;;;;;;12.60;24.98;100624.59;4988302;28;20034;-27
2023/03/29 11:10:05;;;;;;;4.93;1.33;;;;;;;12.43;23.98;100630.47;4988585;28;20048;-27
2023/03/29 11:13:00;;;;;;;2.60;1.45;;;;;;;11.89;23.73;100626.53;4988180;28;20080;-27
2023/03/29 11:15:44;;;;;;;3.63;1.85;;;;;;;12.06;25.06;100618.81;4988292;28;20030;-27
2023/03/29 11:18:37;;;;;;;4.20;1.50;;;;;;;13.07;26.81;100598.22;4988172;28;20073;-27
2023/03/29 11:21:07;;;;;;;3.70;1.30;;;;;;;12.83;24.91;100611.44;4988037;28;20075;-27
2023/03/29 11:23:39;;;;;;;2.05;1.10;;;;;;;12.73;24.66;100613.78;4988124;28;20034;-27
2023/03/29 11:26:13;;;;;;;2.92;1.63;;;;;;;11.77;25.62;100615.66;4988095;28;20173;-27
2023/03/29 11:28:51;;;;;;;2.45;1.52;;;;;;;12.14;25.94;100597.16;4987900;28;20041;-27
2023/03/29 11:31:42;;;;;;;3.03;1.38;;;;;;;12.19;24.15;100607.19;4987836;28;20026;-27
2023/03/29 11:34:29;;;;;;;5.78;3.50;;;;;;;12.95;23.79;100608.00;4988115;28;20041;-27
2023/03/29 11:37:30;;;;;;;2.65;1.40;;;;;;;13.44;24.04;100599.06;4987840;28;20045;-27
2023/03/29 11:40:25;;;;;;;2.72;1.20;;;;;;;11.55;24.67;100601.75;4950179;28;20528;-27
2023/03/29 11:42:54;;;;;;;3.40;1.25;;;;;;;11.67;25.59;100580.56;4987699;28;20081;-27
2023/03/29 11:45:31;;;;;;;;;;;;;;;12.39;24.11;100586.47;4988256;28;20045;-27
2023/03/29 11:48:01;;;;;;;10.13;6.28;;;;;;;13.17;25.33;100566.38;4987454;28;19917;-27